METAR Data
IDs: Format: Raw Decoded Include TAF

Data at: 2352 UTC 29 May 2020

METAR for:KALO (Waterloo Rgnl, IA, US)
Text:KALO 292254Z 33008G17KT 10SM CLR 22/08 A3010 RMK AO2 SLP191 T02170083
Temperature: 21.7°C ( 71°F)
Dewpoint: 8.3°C ( 47°F) [RH = 42%]
Pressure (altimeter):30.10 inches Hg (1019.4 mb) [Sea level pressure: 1019.1 mb]
Winds:from the NNW (330 degrees) at 9 MPH (8 knots; 4.1 m/s) gusting to 20 MPH (17 knots; 8.7 m/s)
Visibility:10 or more sm (16+ km)
Ceiling:at least 12,000 feet AGL
Clouds:sky clear below 12,000 feet AGL